sensor_id;sensor_type;location;lat;lon;timestamp;P1;durP1;ratioP1;P2;durP2;ratioP2
735;SDS011;352;48.626;9.238;2023-03-16T00:00:17;7.38;;;6.68;;
735;SDS011;352;48.626;9.238;2023-03-16T00:02:45;7.07;;;6.38;;
735;SDS011;352;48.626;9.238;2023-03-16T00:05:12;11.18;;;7.47;;
735;SDS011;352;48.626;9.238;2023-03-16T00:07:39;8.98;;;8.07;;
735;SDS011;352;48.626;9.238;2023-03-16T00:10:07;8.20;;;7.25;;
735;SDS011;352;48.626;9.238;2023-03-16T00:12:36;10.68;;;8.43;;
735;SDS011;352;48.626;9.238;2023-03-16T00:15:05;8.85;;;7.95;;
735;SDS011;352;48.626;9.238;2023-03-16T00:17:33;8.70;;;7.80;;
735;SDS011;352;48.626;9.238;2023-03-16T00:19:59;9.35;;;8.45;;
735;SDS011;352;48.626;9.238;2023-03-16T00:22:30;8.52;;;7.53;;
735;SDS011;352;48.626;9.238;2023-03-16T00:24:57;7.65;;;6.78;;
735;SDS011;352;48.626;9.238;2023-03-16T00:27:24;9.15;;;8.25;;
735;SDS011;352;48.626;9.238;2023-03-16T00:29:52;9.43;;;8.20;;
735;SDS011;352;48.626;9.238;2023-03-16T00:32:23;8.65;;;7.82;;
735;SDS011;352;48.626;9.238;2023-03-16T00:34:50;9.05;;;7.25;;
735;SDS011;352;48.626;9.238;2023-03-16T00:37:18;8.15;;;7.30;;
735;SDS011;352;48.626;9.238;2023-03-16T00:39:47;7.97;;;7.18;;
735;SDS011;352;48.626;9.238;2023-03-16T00:42:15;8.98;;;6.90;;
735;SDS011;352;48.626;9.238;2023-03-16T00:44:43;7.63;;;6.50;;
735;SDS011;352;48.626;9.238;2023-03-16T00:47:10;7.15;;;6.45;;
735;SDS011;352;48.626;9.238;2023-03-16T00:49:41;11.18;;;6.03;;
735;SDS011;352;48.626;9.238;2023-03-16T00:52:10;7.85;;;7.00;;
735;SDS011;352;48.626;9.238;2023-03-16T00:54:39;7.95;;;7.15;;
735;SDS011;352;48.626;9.238;2023-03-16T00:57:07;8.32;;;7.43;;
735;SDS011;352;48.626;9.238;2023-03-16T00:59:36;7.70;;;6.90;;
735;SDS011;352;48.626;9.238;2023-03-16T01:02:03;8.20;;;7.40;;
735;SDS011;352;48.626;9.238;2023-03-16T01:04:30;8.43;;;7.63;;
735;SDS011;352;48.626;9.238;2023-03-16T01:06:59;7.00;;;6.30;;
735;SDS011;352;48.626;9.238;2023-03-16T01:09:26;7.88;;;7.07;;
735;SDS011;352;48.626;9.238;2023-03-16T01:11:53;7.30;;;6.60;;
735;SDS011;352;48.626;9.238;2023-03-16T01:14:20;8.80;;;7.32;;
735;SDS011;352;48.626;9.238;2023-03-16T01:16:48;10.05;;;7.25;;
735;SDS011;352;48.626;9.238;2023-03-16T01:19:15;8.23;;;7.40;;
735;SDS011;352;48.626;9.238;2023-03-16T01:21:43;9.82;;;8.30;;
735;SDS011;352;48.626;9.238;2023-03-16T01:24:11;9.23;;;8.32;;
735;SDS011;352;48.626;9.238;2023-03-16T01:26:38;9.52;;;7.18;;
735;SDS011;352;48.626;9.238;2023-03-16T01:29:05;8.75;;;7.85;;
735;SDS011;352;48.626;9.238;2023-03-16T01:31:32;10.00;;;7.22;;
735;SDS011;352;48.626;9.238;2023-03-16T01:33:58;8.43;;;6.72;;
735;SDS011;352;48.626;9.238;2023-03-16T01:36:28;10.63;;;7.22;;
735;SDS011;352;48.626;9.238;2023-03-16T01:38:55;8.02;;;7.22;;
735;SDS011;352;48.626;9.238;2023-03-16T01:41:23;8.93;;;7.90;;
735;SDS011;352;48.626;9.238;2023-03-16T01:43:51;9.18;;;7.88;;
735;SDS011;352;48.626;9.238;2023-03-16T01:46:23;8.15;;;7.22;;
735;SDS011;352;48.626;9.238;2023-03-16T01:48:55;9.40;;;7.05;;
735;SDS011;352;48.626;9.238;2023-03-16T01:51:26;8.95;;;7.00;;
735;SDS011;352;48.626;9.238;2023-03-16T01:53:57;8.48;;;6.82;;
735;SDS011;352;48.626;9.238;2023-03-16T01:56:30;9.10;;;7.20;;
735;SDS011;352;48.626;9.238;2023-03-16T01:59:02;8.70;;;7.50;;
735;SDS011;352;48.626;9.238;2023-03-16T02:01:34;11.35;;;7.50;;
735;SDS011;352;48.626;9.238;2023-03-16T02:04:03;11.43;;;7.80;;
735;SDS011;352;48.626;9.238;2023-03-16T02:06:37;8.90;;;8.00;;
735;SDS011;352;48.626;9.238;2023-03-16T02:09:05;7.75;;;6.80;;
735;SDS011;352;48.626;9.238;2023-03-16T02:11:33;13.63;;;7.20;;
735;SDS011;352;48.626;9.238;2023-03-16T02:14:01;7.85;;;7.00;;
735;SDS011;352;48.626;9.238;2023-03-16T02:16:33;8.30;;;7.20;;
735;SDS011;352;48.626;9.238;2023-03-16T02:18:59;9.60;;;7.15;;
735;SDS011;352;48.626;9.238;2023-03-16T02:21:27;9.02;;;7.07;;
735;SDS011;352;48.626;9.238;2023-03-16T02:23:59;9.90;;;7.53;;
735;SDS011;352;48.626;9.238;2023-03-16T02:26:28;9.20;;;7.45;;
735;SDS011;352;48.626;9.238;2023-03-16T02:29:05;7.65;;;6.85;;
735;SDS011;352;48.626;9.238;2023-03-16T02:31:40;8.23;;;7.43;;
735;SDS011;352;48.626;9.238;2023-03-16T02:34:07;8.10;;;7.03;;
735;SDS011;352;48.626;9.238;2023-03-16T02:36:37;9.70;;;7.45;;
735;SDS011;352;48.626;9.238;2023-03-16T02:39:05;6.93;;;6.32;;
735;SDS011;352;48.626;9.238;2023-03-16T02:41:32;8.90;;;8.00;;
735;SDS011;352;48.626;9.238;2023-03-16T02:44:00;8.90;;;8.00;;
735;SDS011;352;48.626;9.238;2023-03-16T02:46:30;10.07;;;9.05;;
735;SDS011;352;48.626;9.238;2023-03-16T02:49:02;10.85;;;8.38;;
735;SDS011;352;48.626;9.238;2023-03-16T02:51:32;8.55;;;7.20;;
735;SDS011;352;48.626;9.238;2023-03-16T02:53:59;10.75;;;8.20;;
735;SDS011;352;48.626;9.238;2023-03-16T02:56:26;9.23;;;8.32;;
735;SDS011;352;48.626;9.238;2023-03-16T02:58:52;10.10;;;9.10;;
735;SDS011;352;48.626;9.238;2023-03-16T03:01:21;10.40;;;8.68;;
735;SDS011;352;48.626;9.238;2023-03-16T03:03:48;9.10;;;8.30;;
735;SDS011;352;48.626;9.238;2023-03-16T03:06:16;8.48;;;7.57;;
735;SDS011;352;48.626;9.238;2023-03-16T03:08:42;10.27;;;9.20;;
735;SDS011;352;48.626;9.238;2023-03-16T03:11:09;10.43;;;9.35;;
735;SDS011;352;48.626;9.238;2023-03-16T03:13:36;13.43;;;9.77;;
735;SDS011;352;48.626;9.238;2023-03-16T03:16:03;10.73;;;8.65;;
735;SDS011;352;48.626;9.238;2023-03-16T03:18:30;9.43;;;8.55;;
735;SDS011;352;48.626;9.238;2023-03-16T03:20:58;10.07;;;8.98;;
735;SDS011;352;48.626;9.238;2023-03-16T03:23:26;9.77;;;8.77;;
735;SDS011;352;48.626;9.238;2023-03-16T03:25:55;8.50;;;7.60;;
735;SDS011;352;48.626;9.238;2023-03-16T03:28:22;9.40;;;8.50;;
735;SDS011;352;48.626;9.238;2023-03-16T03:30:49;9.32;;;8.27;;
735;SDS011;352;48.626;9.238;2023-03-16T03:33:16;10.45;;;9.45;;
735;SDS011;352;48.626;9.238;2023-03-16T03:35:43;12.43;;;10.13;;
735;SDS011;352;48.626;9.238;2023-03-16T03:38:10;10.05;;;8.95;;
735;SDS011;352;48.626;9.238;2023-03-16T03:40:38;11.10;;;9.80;;
735;SDS011;352;48.626;9.238;2023-03-16T03:43:05;13.93;;;10.07;;
735;SDS011;352;48.626;9.238;2023-03-16T03:45:31;15.10;;;11.88;;
735;SDS011;352;48.626;9.238;2023-03-16T03:47:58;15.98;;;11.45;;
735;SDS011;352;48.626;9.238;2023-03-16T03:50:25;14.48;;;10.82;;
735;SDS011;352;48.626;9.238;2023-03-16T03:52:51;11.30;;;9.55;;
735;SDS011;352;48.626;9.238;2023-03-16T03:55:18;10.50;;;9.50;;
735;SDS011;352;48.626;9.238;2023-03-16T03:57:46;11.35;;;10.13;;
735;SDS011;352;48.626;9.238;2023-03-16T04:00:13;11.27;;;8.90;;
735;SDS011;352;48.626;9.238;2023-03-16T04:02:44;10.93;;;9.57;;
735;SDS011;352;48.626;9.238;2023-03-16T04:05:11;13.15;;;9.40;;
735;SDS011;352;48.626;9.238;2023-03-16T04:07:38;10.35;;;9.32;;
735;SDS011;352;48.626;9.238;2023-03-16T04:10:05;11.38;;;10.18;;
735;SDS011;352;48.626;9.238;2023-03-16T04:12:33;9.48;;;8.48;;
735;SDS011;352;48.626;9.238;2023-03-16T04:15:01;13.50;;;10.38;;
735;SDS011;352;48.626;9.238;2023-03-16T04:17:28;13.68;;;10.02;;
735;SDS011;352;48.626;9.238;2023-03-16T04:19:55;10.80;;;9.20;;
735;SDS011;352;48.626;9.238;2023-03-16T04:22:22;10.93;;;9.85;;
735;SDS011;352;48.626;9.238;2023-03-16T04:24:48;11.77;;;10.57;;
735;SDS011;352;48.626;9.238;2023-03-16T04:27:16;13.30;;;11.25;;
735;SDS011;352;48.626;9.238;2023-03-16T04:29:42;11.98;;;10.68;;
735;SDS011;352;48.626;9.238;2023-03-16T04:32:10;12.35;;;10.60;;
735;SDS011;352;48.626;9.238;2023-03-16T04:34:37;11.15;;;9.90;;
735;SDS011;352;48.626;9.238;2023-03-16T04:37:07;12.63;;;10.73;;
735;SDS011;352;48.626;9.238;2023-03-16T04:39:34;12.60;;;11.38;;
735;SDS011;352;48.626;9.238;2023-03-16T04:42:01;12.70;;;10.90;;
735;SDS011;352;48.626;9.238;2023-03-16T04:44:28;12.05;;;10.95;;
735;SDS011;352;48.626;9.238;2023-03-16T04:46:55;12.20;;;10.52;;
735;SDS011;352;48.626;9.238;2023-03-16T04:49:24;10.85;;;9.88;;
735;SDS011;352;48.626;9.238;2023-03-16T04:51:51;11.07;;;9.35;;
735;SDS011;352;48.626;9.238;2023-03-16T04:54:17;12.63;;;11.00;;
735;SDS011;352;48.626;9.238;2023-03-16T04:56:45;16.50;;;9.70;;
735;SDS011;352;48.626;9.238;2023-03-16T04:59:11;11.40;;;9.93;;
735;SDS011;352;48.626;9.238;2023-03-16T05:01:38;11.85;;;9.90;;
735;SDS011;352;48.626;9.238;2023-03-16T05:04:05;11.80;;;10.70;;
735;SDS011;352;48.626;9.238;2023-03-16T05:06:33;12.25;;;10.60;;
735;SDS011;352;48.626;9.238;2023-03-16T05:08:59;11.68;;;10.57;;
735;SDS011;352;48.626;9.238;2023-03-16T05:11:29;12.00;;;10.80;;
735;SDS011;352;48.626;9.238;2023-03-16T05:13:55;12.48;;;11.18;;
735;SDS011;352;48.626;9.238;2023-03-16T05:16:22;12.43;;;11.00;;
735;SDS011;352;48.626;9.238;2023-03-16T05:18:49;11.23;;;10.13;;
735;SDS011;352;48.626;9.238;2023-03-16T05:21:16;12.38;;;10.25;;
735;SDS011;352;48.626;9.238;2023-03-16T05:23:45;12.35;;;11.00;;
735;SDS011;352;48.626;9.238;2023-03-16T05:26:12;16.20;;;12.18;;
735;SDS011;352;48.626;9.238;2023-03-16T05:28:38;12.20;;;10.60;;
735;SDS011;352;48.626;9.238;2023-03-16T05:31:06;15.07;;;11.95;;
735;SDS011;352;48.626;9.238;2023-03-16T05:33:33;14.02;;;12.20;;
735;SDS011;352;48.626;9.238;2023-03-16T05:36:00;11.30;;;9.98;;
735;SDS011;352;48.626;9.238;2023-03-16T05:38:27;13.45;;;10.65;;
735;SDS011;352;48.626;9.238;2023-03-16T05:40:57;12.65;;;11.10;;
735;SDS011;352;48.626;9.238;2023-03-16T05:43:26;12.70;;;11.40;;
735;SDS011;352;48.626;9.238;2023-03-16T05:45:53;14.15;;;11.93;;
735;SDS011;352;48.626;9.238;2023-03-16T05:48:21;15.15;;;12.50;;
735;SDS011;352;48.626;9.238;2023-03-16T05:50:49;14.75;;;11.70;;
735;SDS011;352;48.626;9.238;2023-03-16T05:53:16;11.25;;;10.05;;
735;SDS011;352;48.626;9.238;2023-03-16T05:55:43;13.45;;;11.20;;
735;SDS011;352;48.626;9.238;2023-03-16T05:58:11;14.35;;;10.68;;
735;SDS011;352;48.626;9.238;2023-03-16T06:00:37;13.05;;;10.13;;
735;SDS011;352;48.626;9.238;2023-03-16T06:03:04;11.98;;;9.38;;
735;SDS011;352;48.626;9.238;2023-03-16T06:05:31;11.30;;;9.32;;
735;SDS011;352;48.626;9.238;2023-03-16T06:07:58;12.85;;;10.65;;
735;SDS011;352;48.626;9.238;2023-03-16T06:10:25;12.45;;;10.93;;
735;SDS011;352;48.626;9.238;2023-03-16T06:12:52;12.77;;;11.48;;
735;SDS011;352;48.626;9.238;2023-03-16T06:15:20;12.15;;;10.95;;
735;SDS011;352;48.626;9.238;2023-03-16T06:17:49;12.75;;;10.43;;
735;SDS011;352;48.626;9.238;2023-03-16T06:20:15;12.07;;;10.50;;
735;SDS011;352;48.626;9.238;2023-03-16T06:22:42;12.13;;;10.82;;
735;SDS011;352;48.626;9.238;2023-03-16T06:25:10;13.13;;;11.18;;
735;SDS011;352;48.626;9.238;2023-03-16T06:27:37;13.82;;;10.55;;
735;SDS011;352;48.626;9.238;2023-03-16T06:30:05;11.15;;;9.43;;
735;SDS011;352;48.626;9.238;2023-03-16T06:32:36;14.00;;;11.15;;
735;SDS011;352;48.626;9.238;2023-03-16T06:35:06;10.98;;;9.95;;
735;SDS011;352;48.626;9.238;2023-03-16T06:37:33;10.88;;;9.80;;
735;SDS011;352;48.626;9.238;2023-03-16T06:40:00;10.88;;;9.48;;
735;SDS011;352;48.626;9.238;2023-03-16T06:42:27;11.68;;;10.30;;
735;SDS011;352;48.626;9.238;2023-03-16T06:44:54;13.60;;;10.65;;
735;SDS011;352;48.626;9.238;2023-03-16T06:47:21;11.70;;;10.38;;
735;SDS011;352;48.626;9.238;2023-03-16T06:49:49;12.57;;;11.27;;
735;SDS011;352;48.626;9.238;2023-03-16T06:52:19;10.60;;;9.50;;
735;SDS011;352;48.626;9.238;2023-03-16T06:54:45;12.38;;;9.90;;
735;SDS011;352;48.626;9.238;2023-03-16T06:57:12;10.02;;;9.13;;
735;SDS011;352;48.626;9.238;2023-03-16T06:59:39;9.90;;;8.90;;
735;SDS011;352;48.626;9.238;2023-03-16T07:02:05;9.85;;;8.70;;
735;SDS011;352;48.626;9.238;2023-03-16T07:04:32;8.68;;;7.78;;
735;SDS011;352;48.626;9.238;2023-03-16T07:07:00;9.85;;;8.85;;
735;SDS011;352;48.626;9.238;2023-03-16T07:09:27;10.65;;;8.77;;
735;SDS011;352;48.626;9.238;2023-03-16T07:11:54;8.32;;;7.45;;
735;SDS011;352;48.626;9.238;2023-03-16T07:14:21;9.05;;;8.15;;
735;SDS011;352;48.626;9.238;2023-03-16T07:16:48;9.23;;;8.20;;
735;SDS011;352;48.626;9.238;2023-03-16T07:19:16;9.13;;;7.47;;
735;SDS011;352;48.626;9.238;2023-03-16T07:21:43;9.10;;;8.20;;
735;SDS011;352;48.626;9.238;2023-03-16T07:24:11;8.73;;;7.50;;
735;SDS011;352;48.626;9.238;2023-03-16T07:26:38;8.40;;;7.60;;
735;SDS011;352;48.626;9.238;2023-03-16T07:29:05;8.55;;;7.57;;
735;SDS011;352;48.626;9.238;2023-03-16T07:31:33;8.20;;;7.50;;
735;SDS011;352;48.626;9.238;2023-03-16T07:34:00;8.75;;;7.93;;
735;SDS011;352;48.626;9.238;2023-03-16T07:36:27;8.93;;;7.78;;
735;SDS011;352;48.626;9.238;2023-03-16T07:38:54;8.75;;;7.85;;
735;SDS011;352;48.626;9.238;2023-03-16T07:41:22;9.13;;;8.13;;
735;SDS011;352;48.626;9.238;2023-03-16T07:43:49;8.67;;;7.87;;
735;SDS011;352;48.626;9.238;2023-03-16T07:46:16;9.10;;;8.20;;
735;SDS011;352;48.626;9.238;2023-03-16T07:48:43;9.47;;;8.47;;
735;SDS011;352;48.626;9.238;2023-03-16T07:51:11;11.60;;;8.33;;
735;SDS011;352;48.626;9.238;2023-03-16T07:53:38;8.10;;;7.30;;
735;SDS011;352;48.626;9.238;2023-03-16T07:56:06;9.70;;;8.80;;
735;SDS011;352;48.626;9.238;2023-03-16T07:58:34;10.83;;;9.67;;
735;SDS011;352;48.626;9.238;2023-03-16T08:01:01;8.83;;;8.03;;
735;SDS011;352;48.626;9.238;2023-03-16T08:03:28;8.57;;;7.87;;
735;SDS011;352;48.626;9.238;2023-03-16T08:05:56;8.70;;;8.00;;
735;SDS011;352;48.626;9.238;2023-03-16T08:08:23;8.93;;;8.20;;
735;SDS011;352;48.626;9.238;2023-03-16T08:10:50;9.63;;;8.80;;
735;SDS011;352;48.626;9.238;2023-03-16T08:13:17;8.53;;;7.83;;
735;SDS011;352;48.626;9.238;2023-03-16T08:15:46;8.60;;;7.90;;
735;SDS011;352;48.626;9.238;2023-03-16T08:18:13;8.17;;;7.37;;
735;SDS011;352;48.626;9.238;2023-03-16T08:20:40;8.57;;;7.87;;
735;SDS011;352;48.626;9.238;2023-03-16T08:23:08;9.37;;;8.47;;
735;SDS011;352;48.626;9.238;2023-03-16T08:25:35;9.50;;;8.60;;
735;SDS011;352;48.626;9.238;2023-03-16T08:28:02;9.10;;;8.20;;
735;SDS011;352;48.626;9.238;2023-03-16T08:30:29;9.73;;;8.90;;
735;SDS011;352;48.626;9.238;2023-03-16T08:32:58;8.50;;;7.70;;
735;SDS011;352;48.626;9.238;2023-03-16T08:35:25;8.23;;;7.53;;
735;SDS011;352;48.626;9.238;2023-03-16T08:37:53;8.50;;;7.80;;
735;SDS011;352;48.626;9.238;2023-03-16T08:40:20;9.33;;;8.53;;
735;SDS011;352;48.626;9.238;2023-03-16T08:42:49;8.10;;;7.50;;
735;SDS011;352;48.626;9.238;2023-03-16T08:45:16;8.70;;;8.00;;
735;SDS011;352;48.626;9.238;2023-03-16T08:47:43;9.40;;;8.60;;
735;SDS011;352;48.626;9.238;2023-03-16T08:50:12;9.10;;;8.17;;
735;SDS011;352;48.626;9.238;2023-03-16T08:52:39;8.07;;;7.37;;
735;SDS011;352;48.626;9.238;2023-03-16T08:55:07;9.20;;;8.50;;
735;SDS011;352;48.626;9.238;2023-03-16T08:57:35;8.13;;;7.53;;
735;SDS011;352;48.626;9.238;2023-03-16T09:00:03;9.00;;;8.20;;
735;SDS011;352;48.626;9.238;2023-03-16T09:02:37;9.80;;;8.20;;
735;SDS011;352;48.626;9.238;2023-03-16T09:05:05;8.27;;;7.57;;
735;SDS011;352;48.626;9.238;2023-03-16T09:07:35;7.53;;;6.93;;
735;SDS011;352;48.626;9.238;2023-03-16T09:10:03;7.57;;;6.97;;
735;SDS011;352;48.626;9.238;2023-03-16T09:12:31;7.27;;;6.63;;
735;SDS011;352;48.626;9.238;2023-03-16T09:15:00;11.33;;;7.87;;
735;SDS011;352;48.626;9.238;2023-03-16T09:17:26;7.50;;;6.80;;
735;SDS011;352;48.626;9.238;2023-03-16T09:19:53;6.70;;;6.20;;
735;SDS011;352;48.626;9.238;2023-03-16T09:22:21;7.43;;;6.87;;
735;SDS011;352;48.626;9.238;2023-03-16T09:24:49;7.03;;;5.90;;
735;SDS011;352;48.626;9.238;2023-03-16T09:27:16;6.10;;;5.63;;
735;SDS011;352;48.626;9.238;2023-03-16T09:29:44;6.67;;;6.00;;
735;SDS011;352;48.626;9.238;2023-03-16T09:32:11;7.10;;;6.60;;
735;SDS011;352;48.626;9.238;2023-03-16T09:34:39;8.13;;;7.43;;
735;SDS011;352;48.626;9.238;2023-03-16T09:37:06;6.77;;;6.27;;
735;SDS011;352;48.626;9.238;2023-03-16T09:39:33;6.97;;;6.40;;
735;SDS011;352;48.626;9.238;2023-03-16T09:42:03;7.97;;;7.27;;
735;SDS011;352;48.626;9.238;2023-03-16T09:44:41;7.00;;;6.30;;
735;SDS011;352;48.626;9.238;2023-03-16T09:47:13;7.07;;;6.40;;
735;SDS011;352;48.626;9.238;2023-03-16T09:49:41;6.90;;;6.30;;
735;SDS011;352;48.626;9.238;2023-03-16T09:52:15;7.30;;;6.60;;
735;SDS011;352;48.626;9.238;2023-03-16T09:54:48;7.60;;;6.83;;
735;SDS011;352;48.626;9.238;2023-03-16T09:57:25;6.67;;;6.20;;
735;SDS011;352;48.626;9.238;2023-03-16T09:59:54;6.17;;;5.77;;
735;SDS011;352;48.626;9.238;2023-03-16T10:02:37;6.20;;;5.70;;
735;SDS011;352;48.626;9.238;2023-03-16T10:05:12;6.80;;;6.17;;
735;SDS011;352;48.626;9.238;2023-03-16T10:07:42;6.93;;;6.23;;
735;SDS011;352;48.626;9.238;2023-03-16T10:10:19;6.50;;;5.47;;
735;SDS011;352;48.626;9.238;2023-03-16T10:12:54;6.07;;;5.57;;
735;SDS011;352;48.626;9.238;2023-03-16T10:15:24;6.10;;;5.60;;
735;SDS011;352;48.626;9.238;2023-03-16T10:17:54;5.30;;;4.90;;
735;SDS011;352;48.626;9.238;2023-03-16T10:20:26;5.80;;;5.20;;
735;SDS011;352;48.626;9.238;2023-03-16T10:22:58;6.40;;;5.80;;
735;SDS011;352;48.626;9.238;2023-03-16T10:25:31;5.73;;;5.33;;
735;SDS011;352;48.626;9.238;2023-03-16T10:28:09;5.40;;;4.90;;
735;SDS011;352;48.626;9.238;2023-03-16T10:30:38;6.27;;;5.30;;
735;SDS011;352;48.626;9.238;2023-03-16T10:33:10;5.50;;;5.00;;
735;SDS011;352;48.626;9.238;2023-03-16T10:35:44;5.10;;;4.60;;
735;SDS011;352;48.626;9.238;2023-03-16T10:38:25;4.70;;;4.30;;
735;SDS011;352;48.626;9.238;2023-03-16T10:40:54;5.20;;;4.70;;
735;SDS011;352;48.626;9.238;2023-03-16T10:43:24;4.77;;;4.47;;
735;SDS011;352;48.626;9.238;2023-03-16T10:45:51;5.33;;;4.93;;
735;SDS011;352;48.626;9.238;2023-03-16T10:48:24;4.60;;;4.20;;
735;SDS011;352;48.626;9.238;2023-03-16T10:50:53;3.97;;;3.50;;
735;SDS011;352;48.626;9.238;2023-03-16T10:53:22;4.27;;;3.90;;
735;SDS011;352;48.626;9.238;2023-03-16T10:55:55;4.30;;;3.90;;
735;SDS011;352;48.626;9.238;2023-03-16T10:58:25;4.13;;;3.73;;
735;SDS011;352;48.626;9.238;2023-03-16T11:00:56;4.30;;;3.13;;
735;SDS011;352;48.626;9.238;2023-03-16T11:03:25;3.70;;;3.40;;
735;SDS011;352;48.626;9.238;2023-03-16T11:05:56;4.30;;;3.93;;
735;SDS011;352;48.626;9.238;2023-03-16T11:08:26;5.27;;;4.00;;
735;SDS011;352;48.626;9.238;2023-03-16T11:10:57;3.70;;;3.40;;
735;SDS011;352;48.626;9.238;2023-03-16T11:13:30;3.30;;;3.03;;
735;SDS011;352;48.626;9.238;2023-03-16T11:16:00;3.80;;;3.43;;
735;SDS011;352;48.626;9.238;2023-03-16T11:18:31;3.80;;;3.50;;
735;SDS011;352;48.626;9.238;2023-03-16T11:21:05;3.80;;;3.50;;
735;SDS011;352;48.626;9.238;2023-03-16T11:23:38;3.70;;;3.40;;
735;SDS011;352;48.626;9.238;2023-03-16T11:26:10;3.00;;;2.80;;
735;SDS011;352;48.626;9.238;2023-03-16T11:28:46;2.90;;;2.70;;
735;SDS011;352;48.626;9.238;2023-03-16T11:31:19;3.80;;;3.30;;
735;SDS011;352;48.626;9.238;2023-03-16T11:33:51;3.33;;;2.43;;
735;SDS011;352;48.626;9.238;2023-03-16T11:36:29;3.27;;;2.90;;
735;SDS011;352;48.626;9.238;2023-03-16T11:39:06;2.40;;;2.20;;
735;SDS011;352;48.626;9.238;2023-03-16T11:41:41;2.40;;;2.20;;
735;SDS011;352;48.626;9.238;2023-03-16T11:44:20;3.00;;;2.80;;
735;SDS011;352;48.626;9.238;2023-03-16T11:46:55;1.87;;;1.77;;
735;SDS011;352;48.626;9.238;2023-03-16T11:49:34;2.50;;;2.30;;
735;SDS011;352;48.626;9.238;2023-03-16T11:52:12;2.50;;;2.30;;
735;SDS011;352;48.626;9.238;2023-03-16T11:54:50;2.27;;;2.07;;
735;SDS011;352;48.626;9.238;2023-03-16T11:57:27;1.90;;;1.80;;
735;SDS011;352;48.626;9.238;2023-03-16T12:00:06;3.90;;;2.30;;
735;SDS011;352;48.626;9.238;2023-03-16T12:02:53;2.37;;;2.17;;
735;SDS011;352;48.626;9.238;2023-03-16T12:05:36;1.90;;;1.80;;
735;SDS011;352;48.626;9.238;2023-03-16T12:08:19;2.33;;;2.10;;
735;SDS011;352;48.626;9.238;2023-03-16T12:10:58;3.90;;;2.27;;
735;SDS011;352;48.626;9.238;2023-03-16T12:13:31;2.37;;;2.23;;
735;SDS011;352;48.626;9.238;2023-03-16T12:16:10;3.03;;;2.83;;
735;SDS011;352;48.626;9.238;2023-03-16T12:18:44;2.53;;;2.40;;
735;SDS011;352;48.626;9.238;2023-03-16T12:21:16;3.03;;;2.50;;
735;SDS011;352;48.626;9.238;2023-03-16T12:23:49;2.23;;;2.03;;
735;SDS011;352;48.626;9.238;2023-03-16T12:26:17;2.40;;;2.20;;
735;SDS011;352;48.626;9.238;2023-03-16T12:28:46;2.50;;;2.30;;
735;SDS011;352;48.626;9.238;2023-03-16T12:31:15;2.50;;;2.30;;
735;SDS011;352;48.626;9.238;2023-03-16T12:33:51;5.70;;;2.57;;
735;SDS011;352;48.626;9.238;2023-03-16T12:36:33;2.70;;;2.47;;
735;SDS011;352;48.626;9.238;2023-03-16T12:39:22;4.13;;;2.30;;
735;SDS011;352;48.626;9.238;2023-03-16T12:42:00;3.40;;;2.60;;
735;SDS011;352;48.626;9.238;2023-03-16T12:44:38;2.57;;;2.37;;
735;SDS011;352;48.626;9.238;2023-03-16T12:47:13;4.20;;;2.20;;
735;SDS011;352;48.626;9.238;2023-03-16T12:49:49;5.13;;;2.33;;
735;SDS011;352;48.626;9.238;2023-03-16T12:52:17;2.60;;;2.40;;
735;SDS011;352;48.626;9.238;2023-03-16T12:54:47;2.50;;;2.03;;
735;SDS011;352;48.626;9.238;2023-03-16T12:57:15;5.13;;;2.70;;
735;SDS011;352;48.626;9.238;2023-03-16T12:59:43;2.50;;;2.30;;
735;SDS011;352;48.626;9.238;2023-03-16T13:02:14;4.20;;;3.33;;
735;SDS011;352;48.626;9.238;2023-03-16T13:04:44;2.20;;;2.00;;
735;SDS011;352;48.626;9.238;2023-03-16T13:07:15;2.50;;;2.30;;
735;SDS011;352;48.626;9.238;2023-03-16T13:09:44;2.23;;;2.03;;
735;SDS011;352;48.626;9.238;2023-03-16T13:12:21;2.43;;;2.23;;
735;SDS011;352;48.626;9.238;2023-03-16T13:14:50;5.63;;;2.47;;
735;SDS011;352;48.626;9.238;2023-03-16T13:17:24;5.87;;;2.23;;
735;SDS011;352;48.626;9.238;2023-03-16T13:19:57;2.23;;;2.03;;
735;SDS011;352;48.626;9.238;2023-03-16T13:22:39;2.80;;;2.60;;
735;SDS011;352;48.626;9.238;2023-03-16T13:25:13;2.40;;;2.20;;
735;SDS011;352;48.626;9.238;2023-03-16T13:27:42;2.60;;;2.40;;
735;SDS011;352;48.626;9.238;2023-03-16T13:30:17;2.53;;;2.30;;
735;SDS011;352;48.626;9.238;2023-03-16T13:32:47;2.70;;;2.50;;
735;SDS011;352;48.626;9.238;2023-03-16T13:35:18;3.20;;;2.90;;
735;SDS011;352;48.626;9.238;2023-03-16T13:37:49;2.60;;;2.40;;
735;SDS011;352;48.626;9.238;2023-03-16T13:40:18;2.60;;;2.40;;
735;SDS011;352;48.626;9.238;2023-03-16T13:42:46;2.83;;;2.30;;
735;SDS011;352;48.626;9.238;2023-03-16T13:45:18;2.40;;;2.20;;
735;SDS011;352;48.626;9.238;2023-03-16T13:47:49;2.67;;;2.47;;
735;SDS011;352;48.626;9.238;2023-03-16T13:50:16;2.77;;;2.57;;
735;SDS011;352;48.626;9.238;2023-03-16T13:52:49;2.70;;;2.50;;
735;SDS011;352;48.626;9.238;2023-03-16T13:55:22;2.20;;;2.10;;
735;SDS011;352;48.626;9.238;2023-03-16T13:57:55;2.30;;;2.10;;
735;SDS011;352;48.626;9.238;2023-03-16T14:00:22;2.53;;;2.33;;
735;SDS011;352;48.626;9.238;2023-03-16T14:02:53;2.67;;;2.47;;
735;SDS011;352;48.626;9.238;2023-03-16T14:05:21;3.10;;;2.27;;
735;SDS011;352;48.626;9.238;2023-03-16T14:07:50;4.00;;;2.53;;
735;SDS011;352;48.626;9.238;2023-03-16T14:10:17;2.50;;;2.30;;
735;SDS011;352;48.626;9.238;2023-03-16T14:12:51;1.97;;;1.87;;
735;SDS011;352;48.626;9.238;2023-03-16T14:15:19;3.00;;;2.10;;
735;SDS011;352;48.626;9.238;2023-03-16T14:17:47;2.43;;;2.23;;
735;SDS011;352;48.626;9.238;2023-03-16T14:20:18;2.67;;;2.47;;
735;SDS011;352;48.626;9.238;2023-03-16T14:22:46;2.77;;;2.57;;
735;SDS011;352;48.626;9.238;2023-03-16T14:25:18;2.20;;;2.10;;
735;SDS011;352;48.626;9.238;2023-03-16T14:27:47;2.63;;;2.43;;
735;SDS011;352;48.626;9.238;2023-03-16T14:30:22;2.77;;;2.43;;
735;SDS011;352;48.626;9.238;2023-03-16T14:32:55;2.70;;;2.50;;
735;SDS011;352;48.626;9.238;2023-03-16T14:35:26;2.03;;;1.93;;
735;SDS011;352;48.626;9.238;2023-03-16T14:37:54;2.30;;;2.10;;
735;SDS011;352;48.626;9.238;2023-03-16T14:40:23;3.97;;;2.30;;
735;SDS011;352;48.626;9.238;2023-03-16T14:42:53;3.03;;;2.40;;
735;SDS011;352;48.626;9.238;2023-03-16T14:45:22;2.93;;;2.60;;
735;SDS011;352;48.626;9.238;2023-03-16T14:47:58;2.40;;;2.30;;
735;SDS011;352;48.626;9.238;2023-03-16T14:50:30;2.40;;;2.20;;
735;SDS011;352;48.626;9.238;2023-03-16T14:52:58;2.80;;;2.60;;
735;SDS011;352;48.626;9.238;2023-03-16T14:55:27;3.83;;;2.17;;
735;SDS011;352;48.626;9.238;2023-03-16T14:57:54;3.40;;;3.00;;
735;SDS011;352;48.626;9.238;2023-03-16T15:00:21;2.90;;;2.70;;
735;SDS011;352;48.626;9.238;2023-03-16T15:02:53;3.50;;;2.30;;
735;SDS011;352;48.626;9.238;2023-03-16T15:05:26;2.53;;;2.33;;
735;SDS011;352;48.626;9.238;2023-03-16T15:07:57;4.30;;;3.40;;
735;SDS011;352;48.626;9.238;2023-03-16T15:10:26;3.60;;;3.00;;
735;SDS011;352;48.626;9.238;2023-03-16T15:12:54;3.67;;;3.10;;
735;SDS011;352;48.626;9.238;2023-03-16T15:15:28;3.20;;;2.93;;
735;SDS011;352;48.626;9.238;2023-03-16T15:17:56;2.83;;;2.60;;
735;SDS011;352;48.626;9.238;2023-03-16T15:20:26;2.50;;;2.30;;
735;SDS011;352;48.626;9.238;2023-03-16T15:22:58;3.20;;;2.77;;
735;SDS011;352;48.626;9.238;2023-03-16T15:25:28;4.10;;;2.90;;
735;SDS011;352;48.626;9.238;2023-03-16T15:28:02;3.73;;;2.67;;
735;SDS011;352;48.626;9.238;2023-03-16T15:30:35;2.87;;;2.67;;
735;SDS011;352;48.626;9.238;2023-03-16T15:33:02;5.10;;;3.27;;
735;SDS011;352;48.626;9.238;2023-03-16T15:35:28;2.40;;;2.30;;
735;SDS011;352;48.626;9.238;2023-03-16T15:37:55;3.17;;;2.87;;
735;SDS011;352;48.626;9.238;2023-03-16T15:40:25;4.23;;;3.47;;
735;SDS011;352;48.626;9.238;2023-03-16T15:42:53;3.40;;;2.97;;
735;SDS011;352;48.626;9.238;2023-03-16T15:45:21;3.07;;;2.90;;
735;SDS011;352;48.626;9.238;2023-03-16T15:47:48;3.47;;;3.00;;
735;SDS011;352;48.626;9.238;2023-03-16T15:50:18;3.03;;;2.83;;
735;SDS011;352;48.626;9.238;2023-03-16T15:52:46;2.93;;;2.73;;